Time;durP1;ratioP1;P1;durP2;ratioP2;P2;SDS_P1;SDS_P2;PMS_P1;PMS_P2;Temp;Humidity;BMP_temperature;BMP_pressure;BME280_temperature;BME280_humidity;BME280_pressure;Samples;Min_cycle;Max_cycle;Signal;HPM_P1;HPM_P2
2023/10/01 00:01:23;;;;;;;7.00;5.03;;;11.90;99.90;;;;;;5073056;28;20621;-73
2023/10/01 00:03:50;;;;;;;4.40;4.00;;;11.90;99.90;;;;;;5072624;28;20637;-73
2023/10/01 00:06:17;;;;;;;8.50;4.70;;;11.90;99.90;;;;;;5073268;28;20742;-73
2023/10/01 00:08:44;;;;;;;8.03;5.17;;;11.90;99.90;;;;;;5072673;28;20653;-73
2023/10/01 00:11:11;;;;;;;7.03;5.40;;;11.90;99.90;;;;;;5072751;28;20739;-73
2023/10/01 00:13:38;;;;;;;6.63;4.83;;;12.00;99.90;;;;;;5073557;28;21139;-73
2023/10/01 00:16:05;;;;;;;8.77;4.87;;;12.10;99.90;;;;;;5072652;28;20651;-73
2023/10/01 00:18:34;;;;;;;6.20;4.10;;;12.00;99.90;;;;;;5073324;28;21221;-74
2023/10/01 00:21:01;;;;;;;9.10;5.10;;;12.00;99.90;;;;;;5073244;28;21773;-73
2023/10/01 00:23:28;;;;;;;7.20;5.07;;;12.00;99.90;;;;;;5070925;28;20746;-73
2023/10/01 00:25:55;;;;;;;6.20;4.80;;;12.10;99.90;;;;;;5071639;28;20628;-73
2023/10/01 00:28:22;;;;;;;7.53;4.50;;;12.10;99.90;;;;;;5072005;28;20686;-73
2023/10/01 00:30:49;;;;;;;4.73;4.23;;;12.10;99.90;;;;;;5072736;28;21445;-73
2023/10/01 00:33:16;;;;;;;5.13;4.03;;;12.10;99.90;;;;;;5075083;28;20872;-73
2023/10/01 00:35:44;;;;;;;6.37;3.53;;;12.00;99.90;;;;;;5075506;28;20713;-73
2023/10/01 00:38:11;;;;;;;9.70;4.63;;;12.10;99.90;;;;;;5077059;28;20668;-73
2023/10/01 00:40:42;;;;;;;7.53;4.40;;;12.00;99.90;;;;;;5074942;28;20614;-72
2023/10/01 00:43:09;;;;;;;4.63;4.10;;;11.90;99.90;;;;;;5078120;28;21205;-73
2023/10/01 00:45:36;;;;;;;6.37;4.03;;;11.80;99.90;;;;;;5075440;28;21161;-73
2023/10/01 00:48:05;;;;;;;5.87;4.70;;;11.80;99.90;;;;;;5075719;28;20629;-72
2023/10/01 00:50:34;;;;;;;5.83;4.80;;;11.80;99.90;;;;;;5073332;28;20628;-73
2023/10/01 00:53:03;;;;;;;6.53;4.57;;;11.90;99.90;;;;;;5076623;28;20662;-73
2023/10/01 00:55:30;;;;;;;5.13;4.20;;;11.80;99.90;;;;;;5076615;28;20622;-73
2023/10/01 00:57:58;;;;;;;5.93;3.70;;;11.80;99.90;;;;;;5075474;28;20714;-72
2023/10/01 01:00:26;;;;;;;6.67;4.90;;;11.70;99.90;;;;;;5074993;28;20622;-72
2023/10/01 01:03:05;;;;;;;9.57;4.17;;;11.60;99.90;;;;;;5073317;28;20617;-72
2023/10/01 01:05:35;;;;;;;5.30;4.10;;;11.60;99.90;;;;;;5074961;28;20680;-72
2023/10/01 01:08:20;;;;;;;7.87;4.63;;;11.50;99.90;;;;;;5075775;28;20633;-72
2023/10/01 01:10:50;;;;;;;5.57;4.60;;;11.50;99.90;;;;;;5074726;28;20618;-72
2023/10/01 01:13:18;;;;;;;6.47;3.60;;;11.50;99.90;;;;;;5076845;28;22867;-72
2023/10/01 01:15:47;;;;;;;6.43;4.80;;;11.50;99.90;;;;;;5075007;28;20651;-72
2023/10/01 01:18:20;;;;;;;4.70;4.00;;;11.40;99.90;;;;;;5074823;28;20755;-72
2023/10/01 01:20:48;;;;;;;5.00;4.13;;;11.50;99.90;;;;;;5074446;28;21210;-72
2023/10/01 01:23:18;;;;;;;4.63;4.13;;;11.40;99.90;;;;;;5075783;28;20711;-72
2023/10/01 01:25:46;;;;;;;7.53;4.10;;;11.40;99.90;;;;;;5074044;28;20967;-73
2023/10/01 01:28:24;;;;;;;6.30;3.63;;;11.30;99.90;;;;;;5075728;28;20636;-72
2023/10/01 01:30:52;;;;;;;4.80;3.80;;;11.30;99.90;;;;;;5074718;28;20617;-72
2023/10/01 01:33:26;;;;;;;6.57;4.20;;;11.30;99.90;;;;;;5074913;28;20664;-72
2023/10/01 01:35:54;;;;;;;6.00;4.60;;;11.30;99.90;;;;;;5074289;28;20626;-72
2023/10/01 01:38:22;;;;;;;5.47;4.30;;;11.30;99.90;;;;;;5073504;28;20649;-73
2023/10/01 01:40:52;;;;;;;6.97;3.90;;;11.30;99.90;;;;;;5074104;28;21290;-72
2023/10/01 01:43:22;;;;;;;4.50;3.60;;;11.30;99.90;;;;;;5075152;28;20622;-73
2023/10/01 01:45:54;;;;;;;6.70;4.37;;;11.30;99.90;;;;;;5073220;28;20628;-72
2023/10/01 01:48:31;;;;;;;5.67;3.93;;;11.40;99.90;;;;;;5072603;28;20710;-74
2023/10/01 01:51:00;;;;;;;5.40;4.17;;;11.30;99.90;;;;;;5074467;28;20604;-72
2023/10/01 01:53:34;;;;;;;11.27;5.33;;;11.30;99.90;;;;;;5073892;28;20630;-72
2023/10/01 01:56:04;;;;;;;8.40;4.10;;;11.30;99.90;;;;;;5073891;28;21291;-72
2023/10/01 01:58:32;;;;;;;7.13;4.57;;;11.30;99.90;;;;;;5074059;28;20706;-72
2023/10/01 02:01:09;;;;;;;5.60;4.60;;;11.30;99.90;;;;;;5074236;28;20666;-72
2023/10/01 02:03:37;;;;;;;5.83;4.30;;;11.20;99.90;;;;;;5075472;28;20721;-72
2023/10/01 02:06:06;;;;;;;9.00;4.13;;;11.20;99.90;;;;;;5073057;28;20618;-72
2023/10/01 02:08:48;;;;;;;5.30;3.87;;;11.30;99.90;;;;;;5074254;28;20630;-72
2023/10/01 02:11:16;;;;;;;13.53;6.53;;;11.30;99.90;;;;;;5075146;28;21036;-72
2023/10/01 02:13:45;;;;;;;5.50;4.30;;;11.40;99.90;;;;;;5073492;28;20950;-72
2023/10/01 02:19:21;;;;;;;7.90;4.50;;;11.40;99.90;;;;;;5052701;28;20987;-72
2023/10/01 02:21:52;;;;;;;4.43;4.03;;;11.40;99.90;;;;;;5075676;28;20627;-72
2023/10/01 02:24:23;;;;;;;6.47;4.97;;;11.40;99.90;;;;;;5073059;28;20614;-72
2023/10/01 02:26:59;;;;;;;7.07;4.47;;;11.40;99.90;;;;;;5072044;28;20609;-72
2023/10/01 02:29:32;;;;;;;11.30;6.20;;;11.40;99.90;;;;;;5074725;28;20622;-71
2023/10/01 02:32:04;;;;;;;5.37;4.60;;;11.40;99.90;;;;;;5074502;28;20627;-71
2023/10/01 02:34:32;;;;;;;5.90;4.70;;;11.50;99.90;;;;;;5075075;28;20621;-72
2023/10/01 02:37:04;;;;;;;6.60;3.90;;;11.50;99.90;;;;;;5073311;28;20717;-73
2023/10/01 02:39:32;;;;;;;7.10;5.00;;;11.50;99.90;;;;;;5073593;28;20725;-72
2023/10/01 02:42:21;;;;;;;10.00;4.67;;;11.50;99.90;;;;;;5076554;28;20651;-73
2023/10/01 02:44:48;;;;;;;5.93;3.40;;;11.50;99.90;;;;;;5072341;28;21169;-72
2023/10/01 02:47:18;;;;;;;5.50;4.30;;;11.40;99.90;;;;;;5072301;28;20642;-72
2023/10/01 02:49:49;;;;;;;4.67;4.20;;;11.40;99.90;;;;;;5073082;28;20685;-74
2023/10/01 02:52:17;;;;;;;7.30;4.87;;;11.40;99.90;;;;;;5072404;28;20622;-72
2023/10/01 02:54:47;;;;;;;7.80;5.63;;;11.40;99.90;;;;;;5074130;28;21015;-73
2023/10/01 02:57:23;;;;;;;8.03;5.07;;;11.30;99.90;;;;;;5074607;28;20622;-72
2023/10/01 03:00:20;;;;;;;6.57;4.87;;;11.30;99.90;;;;;;5073529;28;20658;-72
2023/10/01 03:02:51;;;;;;;6.30;5.20;;;11.30;99.90;;;;;;5074188;28;20649;-72
2023/10/01 03:05:26;;;;;;;4.67;4.20;;;11.40;99.90;;;;;;5073263;28;20682;-73
2023/10/01 03:07:53;;;;;;;6.83;4.93;;;11.30;99.90;;;;;;5072696;28;20625;-73
2023/10/01 03:10:31;;;;;;;5.73;4.20;;;11.40;99.90;;;;;;5073934;28;21226;-73
2023/10/01 03:12:58;;;;;;;11.47;5.73;;;11.30;99.90;;;;;;5074261;28;20617;-73
2023/10/01 03:15:27;;;;;;;5.43;3.67;;;11.30;99.90;;;;;;5072806;28;20625;-72
2023/10/01 03:17:57;;;;;;;6.03;4.57;;;11.30;99.90;;;;;;5071542;28;20606;-73
2023/10/01 03:23:12;;;;;;;6.60;4.20;;;11.30;99.90;;;;;;5075003;28;20629;-72
2023/10/01 03:25:42;;;;;;;6.27;4.90;;;11.20;99.90;;;;;;5073311;28;20673;-73
2023/10/01 03:28:14;;;;;;;6.83;4.97;;;11.20;99.90;;;;;;5072682;28;20631;-72
2023/10/01 03:30:45;;;;;;;5.13;4.13;;;11.20;99.90;;;;;;5074041;28;20635;-73
2023/10/01 03:33:15;;;;;;;7.47;4.27;;;11.20;99.90;;;;;;5074354;28;21211;-72
2023/10/01 03:35:47;;;;;;;5.40;3.93;;;11.30;99.90;;;;;;5073091;28;20621;-73
2023/10/01 03:38:15;;;;;;;8.17;4.90;;;11.20;99.90;;;;;;5073345;28;20622;-72
2023/10/01 03:41:00;;;;;;;4.43;4.03;;;11.20;99.90;;;;;;5073801;28;21121;-73
2023/10/01 03:43:32;;;;;;;7.70;4.60;;;11.20;99.90;;;;;;5072916;28;20625;-73
2023/10/01 03:46:08;;;;;;;4.70;3.77;;;11.20;99.90;;;;;;5071409;28;20993;-72
2023/10/01 03:48:57;;;;;;;6.50;5.20;;;11.00;99.90;;;;;;5072728;28;21029;-72
2023/10/01 03:51:28;;;;;;;6.33;4.57;;;10.90;99.90;;;;;;5072140;28;20622;-72
2023/10/01 03:53:59;;;;;;;6.93;4.57;;;10.80;99.90;;;;;;5074023;28;20748;-72
2023/10/01 03:56:30;;;;;;;4.40;4.00;;;10.80;99.90;;;;;;5070715;28;20712;-72
2023/10/01 03:58:57;;;;;;;5.13;4.43;;;10.80;99.90;;;;;;5073054;28;20661;-72
2023/10/01 04:01:33;;;;;;;7.27;4.73;;;10.70;99.90;;;;;;5074315;28;20624;-72
2023/10/01 04:04:01;;;;;;;5.00;3.23;;;10.70;99.90;;;;;;5071247;28;21038;-72
2023/10/01 04:06:29;;;;;;;7.60;4.73;;;10.70;99.90;;;;;;5071528;28;20626;-73
2023/10/01 04:09:00;;;;;;;6.20;4.17;;;10.70;99.90;;;;;;5075850;28;20649;-72
2023/10/01 04:11:49;;;;;;;5.80;4.73;;;10.70;99.90;;;;;;5076688;28;21011;-73
2023/10/01 04:14:18;;;;;;;11.17;5.53;;;10.70;99.90;;;;;;5076780;28;20732;-73
2023/10/01 04:16:46;;;;;;;8.27;4.30;;;10.70;99.90;;;;;;5075891;28;20622;-72
2023/10/01 04:19:18;;;;;;;6.77;4.53;;;10.70;99.90;;;;;;5076164;28;20764;-73
2023/10/01 04:21:50;;;;;;;5.10;4.47;;;10.60;99.90;;;;;;5076381;28;20627;-73
2023/10/01 04:24:19;;;;;;;6.67;4.83;;;10.70;99.90;;;;;;5076279;28;20976;-72
2023/10/01 04:26:47;;;;;;;5.10;3.73;;;10.70;99.90;;;;;;5075136;28;20632;-72
2023/10/01 04:29:16;;;;;;;8.87;4.83;;;10.70;99.90;;;;;;5075343;28;20622;-72
2023/10/01 04:31:42;;;;;;;7.63;5.43;;;10.80;99.90;;;;;;5076796;28;21170;-72
2023/10/01 04:34:11;;;;;;;7.03;4.70;;;10.80;99.90;;;;;;5076566;28;20621;-73
2023/10/01 04:36:38;;;;;;;8.13;4.97;;;10.80;99.90;;;;;;5075799;28;20621;-72
2023/10/01 04:39:05;;;;;;;4.80;3.87;;;10.90;99.90;;;;;;5077318;28;20689;-73
2023/10/01 04:41:32;;;;;;;7.50;4.90;;;10.90;99.90;;;;;;5074697;28;20621;-73
2023/10/01 04:44:06;;;;;;;8.73;5.30;;;10.90;99.90;;;;;;5077232;28;20633;-72
2023/10/01 04:46:37;;;;;;;5.77;4.50;;;11.00;99.90;;;;;;5074629;28;20629;-73
2023/10/01 04:49:08;;;;;;;7.87;6.03;;;10.90;99.90;;;;;;5074801;28;20633;-72
2023/10/01 04:51:44;;;;;;;5.97;3.53;;;10.90;99.90;;;;;;5075361;28;20621;-72
2023/10/01 04:54:17;;;;;;;5.70;4.30;;;11.00;99.90;;;;;;5075341;28;20707;-72
2023/10/01 04:56:45;;;;;;;5.17;3.47;;;11.00;99.90;;;;;;5075217;28;20644;-73
2023/10/01 04:59:14;;;;;;;7.20;5.13;;;11.20;99.90;;;;;;5075098;28;20653;-73
2023/10/01 05:01:41;;;;;;;6.70;4.63;;;11.20;99.90;;;;;;5076226;28;20621;-72
2023/10/01 05:04:11;;;;;;;6.63;4.57;;;11.20;99.90;;;;;;5075800;28;21197;-72
2023/10/01 05:06:40;;;;;;;6.77;5.20;;;11.20;99.90;;;;;;5075332;28;20625;-72
2023/10/01 05:09:08;;;;;;;5.80;3.60;;;11.10;99.90;;;;;;5076923;28;20652;-72
2023/10/01 05:11:34;;;;;;;6.47;4.60;;;11.00;99.90;;;;;;5075952;28;20625;-72
2023/10/01 05:14:04;;;;;;;7.43;4.90;;;10.90;99.90;;;;;;5073086;28;20671;-72
2023/10/01 05:16:36;;;;;;;5.00;4.50;;;10.80;99.90;;;;;;5074263;28;20721;-72
2023/10/01 05:19:10;;;;;;;7.83;4.10;;;10.70;99.90;;;;;;5073373;28;20644;-72
2023/10/01 05:21:48;;;;;;;8.10;5.00;;;10.60;99.90;;;;;;5075291;28;20613;-72
2023/10/01 05:24:31;;;;;;;6.17;4.37;;;10.50;99.90;;;;;;5074945;28;20613;-72
2023/10/01 05:27:00;;;;;;;7.90;4.90;;;10.40;99.90;;;;;;5075581;28;20669;-72
2023/10/01 05:29:28;;;;;;;9.43;6.00;;;10.40;99.90;;;;;;5072823;28;20626;-72
2023/10/01 05:31:57;;;;;;;7.40;4.93;;;10.50;99.90;;;;;;5075287;28;21057;-72
2023/10/01 05:34:25;;;;;;;8.20;5.67;;;10.50;99.90;;;;;;5075043;28;20633;-72
2023/10/01 05:36:52;;;;;;;6.10;4.77;;;10.50;99.90;;;;;;5076062;28;20616;-72
2023/10/01 05:39:23;;;;;;;7.30;4.93;;;10.50;99.90;;;;;;5074664;28;20636;-72
2023/10/01 05:41:51;;;;;;;6.30;5.10;;;10.50;99.90;;;;;;5074979;28;20626;-72
2023/10/01 05:44:21;;;;;;;5.77;4.30;;;10.50;99.90;;;;;;5073489;28;20971;-72
2023/10/01 05:46:48;;;;;;;7.57;5.00;;;10.50;99.90;;;;;;5074403;28;20636;-73
2023/10/01 05:49:18;;;;;;;4.73;3.93;;;10.60;99.90;;;;;;5074359;28;20658;-73
2023/10/01 05:51:45;;;;;;;8.03;4.67;;;10.60;99.90;;;;;;5074560;28;21178;-73
2023/10/01 05:54:18;;;;;;;6.67;5.00;;;10.60;99.90;;;;;;5073888;28;21030;-72
2023/10/01 05:56:48;;;;;;;6.00;4.67;;;10.60;99.90;;;;;;5073146;28;20963;-73
2023/10/01 05:59:20;;;;;;;7.37;5.50;;;10.60;99.90;;;;;;5075371;28;20621;-72
2023/10/01 06:01:48;;;;;;;5.93;4.50;;;10.60;99.90;;;;;;5075107;28;20618;-72
2023/10/01 06:04:17;;;;;;;5.60;4.97;;;10.60;99.90;;;;;;5074767;28;20974;-72
2023/10/01 06:06:46;;;;;;;6.23;4.50;;;10.70;99.90;;;;;;5072901;28;20667;-73
2023/10/01 06:09:15;;;;;;;5.80;5.20;;;10.80;99.90;;;;;;5071573;28;20711;-72
2023/10/01 06:11:48;;;;;;;8.10;5.53;;;10.80;99.90;;;;;;5073510;28;20633;-72
2023/10/01 06:17:00;;;;;;;6.27;4.90;;;10.90;99.90;;;;;;5072977;28;20632;-72
2023/10/01 06:19:27;;;;;;;6.27;5.00;;;11.00;99.90;;;;;;5072870;28;20679;-73
2023/10/01 06:22:12;;;;;;;10.43;4.77;;;11.20;99.90;;;;;;5074300;28;21183;-73
2023/10/01 06:24:39;;;;;;;8.63;5.43;;;11.20;99.90;;;;;;5074968;28;20622;-72
2023/10/01 06:27:06;;;;;;;6.40;5.10;;;11.30;99.90;;;;;;5073614;28;20634;-73
2023/10/01 06:29:40;;;;;;;5.40;4.80;;;11.30;99.90;;;;;;5073182;28;21017;-73
2023/10/01 06:32:09;;;;;;;8.30;5.00;;;11.40;99.90;;;;;;5073709;28;20625;-72
2023/10/01 06:34:39;;;;;;;9.90;4.63;;;11.50;99.90;;;;;;5074416;28;20663;-72
2023/10/01 06:37:07;;;;;;;6.13;5.03;;;11.50;99.90;;;;;;5072560;28;21474;-72
2023/10/01 06:39:35;;;;;;;6.17;4.93;;;11.60;99.90;;;;;;5072805;28;20621;-72
2023/10/01 06:44:44;;;;;;;8.23;5.77;;;11.80;99.90;;;;;;5073801;28;20794;-72
2023/10/01 06:47:15;;;;;;;8.07;5.93;;;11.90;99.90;;;;;;5070914;28;20870;-72
2023/10/01 06:49:56;;;;;;;8.33;5.23;;;12.00;99.90;;;;;;5071272;28;20629;-72
2023/10/01 06:52:26;;;;;;;7.87;6.20;;;12.20;99.90;;;;;;5070712;28;20624;-73
2023/10/01 06:54:53;;;;;;;5.57;4.67;;;12.40;99.90;;;;;;5070840;28;21189;-72
2023/10/01 06:57:22;;;;;;;5.83;5.27;;;12.50;99.90;;;;;;5071300;28;20658;-72
2023/10/01 06:59:49;;;;;;;6.90;5.43;;;12.60;99.90;;;;;;5071120;28;21016;-73
2023/10/01 07:02:15;;;;;;;11.17;6.27;;;12.60;99.90;;;;;;5073915;28;20620;-73
2023/10/01 07:04:56;;;;;;;7.60;5.70;;;12.70;99.90;;;;;;5071445;28;20617;-73
2023/10/01 07:07:28;;;;;;;6.43;5.10;;;12.80;99.90;;;;;;5069920;28;20668;-72
2023/10/01 07:09:56;;;;;;;10.40;5.87;;;12.90;99.90;;;;;;5070682;28;20632;-72
2023/10/01 07:12:24;;;;;;;6.20;5.23;;;13.10;99.90;;;;;;5072506;28;21192;-73
2023/10/01 07:14:51;;;;;;;7.20;5.10;;;13.30;99.90;;;;;;5069438;28;20713;-72
2023/10/01 07:17:23;;;;;;;8.17;5.27;;;13.40;99.90;;;;;;5070371;28;20660;-72
2023/10/01 07:20:18;;;;;;;7.23;4.53;;;13.60;99.90;;;;;;5071819;28;20729;-72
2023/10/01 07:22:46;;;;;;;8.43;4.40;;;13.70;99.90;;;;;;5071434;28;20625;-72
2023/10/01 07:25:28;;;;;;;7.60;5.97;;;13.90;99.90;;;;;;5070673;28;21014;-72
2023/10/01 07:27:56;;;;;;;8.20;4.73;;;14.00;99.90;;;;;;5071948;28;20629;-72
2023/10/01 07:30:39;;;;;;;6.17;5.20;;;14.10;99.90;;;;;;5071529;28;20960;-72
2023/10/01 07:33:08;;;;;;;9.97;5.80;;;14.30;99.90;;;;;;5071006;28;20636;-72
2023/10/01 07:35:41;;;;;;;7.67;5.30;;;14.40;99.90;;;;;;5070299;28;21059;-72
2023/10/01 07:38:09;;;;;;;8.70;5.70;;;14.60;99.90;;;;;;5071342;28;21194;-71
2023/10/01 07:40:53;;;;;;;8.63;5.30;;;14.70;99.90;;;;;;5074418;28;20657;-72
2023/10/01 07:43:23;;;;;;;6.30;4.77;;;14.80;99.90;;;;;;5073891;28;20620;-72
2023/10/01 07:45:58;;;;;;;12.23;5.77;;;15.00;99.90;;;;;;5075294;28;20729;-72
2023/10/01 07:48:27;;;;;;;10.57;5.70;;;15.10;99.90;;;;;;5076230;28;20735;-72
2023/10/01 07:50:54;;;;;;;9.00;5.63;;;15.20;99.90;;;;;;5076767;28;20679;-72
2023/10/01 07:53:23;;;;;;;8.97;4.97;;;15.30;99.90;;;;;;5075000;28;20727;-73
2023/10/01 07:55:50;;;;;;;6.40;5.13;;;15.30;99.90;;;;;;5074564;28;21182;-72
2023/10/01 07:58:44;;;;;;;7.80;4.60;;;15.60;99.90;;;;;;5075035;28;20631;-74
2023/10/01 08:03:56;;;;;;;9.57;5.60;;;15.90;99.90;;;;;;5074295;28;20613;-75
2023/10/01 08:06:29;;;;;;;6.93;4.60;;;16.10;99.80;;;;;;5075332;28;20804;-74
2023/10/01 08:08:59;;;;;;;5.50;4.70;;;16.10;99.90;;;;;;5075851;28;21180;-74
2023/10/01 08:14:12;;;;;;;6.23;4.40;;;16.40;99.30;;;;;;5071371;28;20669;-75
2023/10/01 08:16:47;;;;;;;7.60;5.40;;;16.40;98.80;;;;;;5073342;28;20741;-76
2023/10/01 08:19:20;;;;;;;9.50;5.77;;;16.40;99.30;;;;;;5074935;28;20204;-75
2023/10/01 08:21:53;;;;;;;10.43;4.93;;;16.60;99.00;;;;;;5071047;28;20670;-73
2023/10/01 08:24:33;;;;;;;6.77;5.83;;;16.60;99.30;;;;;;5071545;28;20693;-73
2023/10/01 08:27:01;;;;;;;5.30;3.97;;;16.60;99.10;;;;;;5073677;28;20619;-73
2023/10/01 08:29:29;;;;;;;7.03;4.70;;;16.80;98.80;;;;;;5073100;28;20633;-73
2023/10/01 08:32:08;;;;;;;8.33;4.70;;;16.80;98.80;;;;;;5074845;28;20620;-73
2023/10/01 08:37:22;;;;;;;10.53;4.70;;;17.10;98.50;;;;;;5072538;28;20694;-74
2023/10/01 08:39:53;;;;;;;7.77;5.23;;;17.10;97.80;;;;;;5075457;28;20693;-73
2023/10/01 08:42:22;;;;;;;6.40;5.30;;;17.20;97.90;;;;;;5074085;28;20671;-74
2023/10/01 08:44:50;;;;;;;7.43;5.13;;;17.50;97.20;;;;;;5072893;28;21173;-73
2023/10/01 08:47:35;;;;;;;5.87;5.00;;;17.70;96.70;;;;;;5074418;28;20706;-74
2023/10/01 08:50:18;;;;;;;5.53;4.47;;;17.70;96.90;;;;;;5068984;28;20632;-73
2023/10/01 08:52:55;;;;;;;6.80;4.37;;;17.90;96.50;;;;;;5059786;28;20643;-73
2023/10/01 08:55:35;;;;;;;6.07;4.00;;;18.00;96.60;;;;;;5057687;28;21004;-74
2023/10/01 08:58:24;;;;;;;5.67;4.90;;;18.10;96.50;;;;;;5067021;28;20683;-73
2023/10/01 09:00:56;;;;;;;7.13;4.80;;;18.10;96.20;;;;;;5066444;28;20709;-74
2023/10/01 09:03:28;;;;;;;7.80;5.30;;;18.30;95.90;;;;;;5067550;28;20621;-74
2023/10/01 09:06:03;;;;;;;5.33;4.40;;;18.30;96.30;;;;;;5065558;28;20630;-74
2023/10/01 09:08:31;;;;;;;5.97;4.93;;;18.30;96.60;;;;;;5065056;28;20646;-74
2023/10/01 09:11:01;;;;;;;6.97;4.87;;;18.10;96.50;;;;;;5066883;28;20631;-74
2023/10/01 09:13:30;;;;;;;10.47;5.90;;;18.30;96.40;;;;;;5066185;28;20647;-73
2023/10/01 09:16:10;;;;;;;10.87;6.10;;;18.50;96.00;;;;;;5066069;28;21833;-74
2023/10/01 09:18:39;;;;;;;7.63;5.10;;;18.60;96.00;;;;;;5065783;28;20638;-74
2023/10/01 09:21:08;;;;;;;9.20;5.17;;;18.60;95.90;;;;;;5064594;28;20656;-73
2023/10/01 09:24:11;;;;;;;9.10;5.90;;;18.80;95.50;;;;;;5065256;28;20625;-74
2023/10/01 09:26:42;;;;;;;8.23;4.57;;;18.90;95.40;;;;;;5064463;28;20751;-73
2023/10/01 09:29:21;;;;;;;5.80;4.97;;;18.90;95.10;;;;;;5064951;28;20667;-74
2023/10/01 09:31:53;;;;;;;5.27;4.67;;;18.90;95.30;;;;;;5066326;28;20969;-74
2023/10/01 09:34:31;;;;;;;5.63;5.00;;;19.10;94.90;;;;;;5065523;28;20631;-74
2023/10/01 09:37:01;;;;;;;7.40;4.83;;;19.10;94.40;;;;;;5064651;28;20782;-74
2023/10/01 09:39:38;;;;;;;9.17;5.33;;;19.20;94.40;;;;;;5065641;28;20616;-74
2023/10/01 09:42:26;;;;;;;7.27;4.57;;;19.20;93.90;;;;;;5065594;28;20733;-74
2023/10/01 09:44:54;;;;;;;8.90;6.47;;;19.30;94.40;;;;;;5066492;28;20625;-74
2023/10/01 09:47:25;;;;;;;7.23;4.47;;;19.40;93.80;;;;;;5064963;28;21185;-74
2023/10/01 09:49:53;;;;;;;6.70;5.20;;;19.40;93.80;;;;;;5065234;28;21039;-74
2023/10/01 09:52:48;;;;;;;7.33;4.70;;;19.40;94.10;;;;;;5061796;28;20653;-74
2023/10/01 09:55:26;;;;;;;7.13;4.70;;;19.40;93.60;;;;;;5062212;28;21170;-74
2023/10/01 09:57:54;;;;;;;4.03;3.30;;;19.50;93.90;;;;;;5064169;28;20627;-74
2023/10/01 10:00:39;;;;;;;8.03;6.37;;;19.50;94.00;;;;;;5063791;28;20613;-74
2023/10/01 10:03:11;;;;;;;5.03;4.40;;;19.70;93.80;;;;;;5063896;28;20639;-73
2023/10/01 10:05:40;;;;;;;5.50;4.90;;;19.70;93.20;;;;;;5063762;28;20641;-73
2023/10/01 10:08:20;;;;;;;5.37;4.53;;;19.80;93.20;;;;;;5064542;28;20640;-74
2023/10/01 10:10:52;;;;;;;6.90;5.10;;;19.90;92.60;;;;;;5065193;28;20755;-74
2023/10/01 10:13:37;;;;;;;8.80;4.73;;;19.80;92.30;;;;;;5065015;28;20634;-74
2023/10/01 10:16:29;;;;;;;9.10;4.30;;;20.00;92.50;;;;;;5064009;28;20629;-74
2023/10/01 10:19:12;;;;;;;5.80;4.73;;;20.00;92.40;;;;;;5065082;28;22364;-74
2023/10/01 10:22:11;;;;;;;5.60;4.33;;;20.00;92.10;;;;;;5065682;28;20676;-74
2023/10/01 10:24:40;;;;;;;7.80;3.93;;;20.10;92.30;;;;;;5063689;28;20626;-74
2023/10/01 10:27:09;;;;;;;6.40;4.70;;;20.00;92.30;;;;;;5064190;28;20633;-74
2023/10/01 10:30:21;;;;;;;7.37;4.93;;;20.10;92.10;;;;;;5063047;28;20627;-73
2023/10/01 10:33:39;;;;;;;6.73;4.73;;;20.20;91.50;;;;;;5063754;28;20633;-73
2023/10/01 10:36:34;;;;;;;7.83;4.87;;;20.10;91.80;;;;;;5064137;28;21192;-73
2023/10/01 10:39:01;;;;;;;6.20;4.10;;;20.20;91.50;;;;;;5063846;28;20621;-73
2023/10/01 10:41:31;;;;;;;8.00;4.60;;;20.30;91.40;;;;;;5064096;28;20664;-73
2023/10/01 10:44:08;;;;;;;8.90;4.90;;;20.10;91.00;;;;;;5064222;28;20648;-73
2023/10/01 10:47:03;;;;;;;6.20;4.00;;;20.10;91.30;;;;;;5063992;28;20655;-73
2023/10/01 10:49:50;;;;;;;6.10;4.70;;;20.20;91.30;;;;;;5063815;28;20629;-73
2023/10/01 10:52:31;;;;;;;8.97;5.70;;;20.20;91.30;;;;;;5063962;28;20621;-73
2023/10/01 10:55:15;;;;;;;5.10;3.80;;;20.20;91.40;;;;;;5064118;28;20620;-73
2023/10/01 10:57:48;;;;;;;8.57;5.17;;;20.30;91.40;;;;;;5062941;28;20657;-74
2023/10/01 11:00:24;;;;;;;8.57;5.00;;;20.30;90.70;;;;;;5064255;28;20668;-73
2023/10/01 11:02:56;;;;;;;7.07;4.90;;;20.30;91.10;;;;;;5063228;28;20663;-73
2023/10/01 11:05:24;;;;;;;7.47;4.83;;;20.30;91.20;;;;;;5063861;28;21780;-74
2023/10/01 11:07:58;;;;;;;6.10;4.20;;;20.50;90.90;;;;;;5063904;28;20639;-73
2023/10/01 11:10:27;;;;;;;8.53;4.77;;;20.50;90.70;;;;;;5061597;28;20621;-72
2023/10/01 11:12:54;;;;;;;6.97;3.97;;;20.50;90.20;;;;;;5063044;28;20704;-74
2023/10/01 11:15:23;;;;;;;5.90;4.97;;;20.50;90.40;;;;;;5060757;28;20614;-74
2023/10/01 11:18:01;;;;;;;5.53;4.10;;;20.60;90.00;;;;;;5062223;28;20741;-75
2023/10/01 11:20:33;;;;;;;11.77;4.53;;;20.60;90.00;;;;;;5063794;28;20629;-75
2023/10/01 11:23:00;;;;;;;4.93;3.90;;;20.60;89.40;;;;;;5063483;28;20660;-74
2023/10/01 11:25:27;;;;;;;10.90;6.07;;;20.60;90.00;;;;;;5063115;28;21014;-74
2023/10/01 11:28:04;;;;;;;9.70;5.03;;;20.80;88.20;;;;;;5062520;28;20629;-75
2023/10/01 11:30:34;;;;;;;7.10;4.20;;;20.80;90.30;;;;;;5063209;28;20838;-74
2023/10/01 11:33:03;;;;;;;7.83;4.83;;;20.80;90.10;;;;;;5063443;28;21162;-74
2023/10/01 11:35:34;;;;;;;6.97;4.50;;;20.80;90.20;;;;;;5062279;28;20633;-74
2023/10/01 11:38:09;;;;;;;9.03;4.47;;;20.90;89.60;;;;;;5061853;28;20629;-74
2023/10/01 11:43:38;;;;;;;6.03;4.77;;;20.90;89.70;;;;;;5014231;28;20661;-74
2023/10/01 11:46:19;;;;;;;12.33;4.87;;;21.00;88.00;;;;;;5062049;28;20634;-74
2023/10/01 11:48:59;;;;;;;7.07;4.90;;;20.90;88.80;;;;;;5058208;28;20618;-74
2023/10/01 11:51:36;;;;;;;9.20;4.87;;;20.90;88.50;;;;;;5061937;28;20688;-75
2023/10/01 11:54:09;;;;;;;7.47;4.63;;;21.00;88.80;;;;;;5062212;28;20621;-75
2023/10/01 11:56:44;;;;;;;10.90;4.80;;;20.90;89.50;;;;;;5056307;28;20632;-74
2023/10/01 11:59:18;;;;;;;7.07;4.70;;;20.90;90.10;;;;;;5063423;28;20651;-73
2023/10/01 12:01:51;;;;;;;8.53;5.20;;;21.00;88.70;;;;;;5062753;28;21048;-73
2023/10/01 12:07:11;;;;;;;6.40;4.40;;;21.00;88.60;;;;;;5043601;28;20992;-73
2023/10/01 12:09:40;;;;;;;6.20;4.50;;;21.10;87.70;;;;;;5061554;28;20610;-74
2023/10/01 12:12:08;;;;;;;6.03;4.50;;;21.20;87.40;;;;;;5062999;28;20617;-74
2023/10/01 12:14:52;;;;;;;6.23;4.27;;;21.30;86.40;;;;;;5063201;28;20642;-74
2023/10/01 12:17:24;;;;;;;8.10;4.37;;;21.20;86.90;;;;;;5062199;28;21006;-73
2023/10/01 12:19:58;;;;;;;10.00;4.50;;;21.30;86.30;;;;;;5061611;28;20632;-73
2023/10/01 12:22:25;;;;;;;6.43;4.50;;;21.30;86.60;;;;;;5061657;28;20666;-73
2023/10/01 12:25:00;;;;;;;7.83;4.27;;;21.20;89.00;;;;;;5063428;28;20982;-73
2023/10/01 12:27:37;;;;;;;5.90;3.33;;;21.30;87.50;;;;;;5062571;28;20837;-73
2023/10/01 12:30:05;;;;;;;5.53;3.60;;;21.40;86.30;;;;;;5066551;28;20633;-74
2023/10/01 12:32:41;;;;;;;7.03;4.30;;;21.50;84.90;;;;;;5066003;28;20638;-74
2023/10/01 12:35:27;;;;;;;9.73;4.73;;;21.50;84.90;;;;;;5066157;28;20627;-74
2023/10/01 12:38:05;;;;;;;6.37;4.57;;;21.60;83.60;;;;;;5063974;28;20629;-74
2023/10/01 12:40:34;;;;;;;5.33;4.20;;;21.40;82.30;;;;;;5066640;28;20628;-74
2023/10/01 12:43:02;;;;;;;6.43;4.10;;;21.40;83.40;;;;;;5066110;28;20807;-74
2023/10/01 12:45:28;;;;;;;7.63;4.73;;;21.50;83.30;;;;;;5065703;28;20626;-74
2023/10/01 12:48:07;;;;;;;10.17;5.30;;;21.50;83.90;;;;;;5066449;28;20621;-74
2023/10/01 12:50:35;;;;;;;6.37;4.50;;;21.50;83.30;;;;;;5065410;28;20330;-74
2023/10/01 12:53:20;;;;;;;6.13;4.13;;;21.70;84.90;;;;;;5067046;28;21791;-74
2023/10/01 12:55:52;;;;;;;9.23;4.73;;;21.70;83.80;;;;;;5064969;28;20624;-74
2023/10/01 12:58:29;;;;;;;6.60;4.20;;;21.80;81.90;;;;;;5066529;28;21026;-74
2023/10/01 13:00:57;;;;;;;6.10;4.90;;;21.90;81.30;;;;;;5065772;28;21070;-74
2023/10/01 13:03:24;;;;;;;6.80;3.60;;;21.80;80.80;;;;;;5065315;28;21500;-74
2023/10/01 13:05:53;;;;;;;9.50;4.73;;;21.80;82.40;;;;;;5065055;28;20628;-74
2023/10/01 13:08:28;;;;;;;6.33;4.30;;;21.80;80.50;;;;;;5064636;28;20640;-74
2023/10/01 13:10:55;;;;;;;8.53;5.10;;;22.00;79.90;;;;;;5065111;28;20621;-74
2023/10/01 13:13:29;;;;;;;7.33;4.67;;;22.10;78.80;;;;;;5065562;28;20618;-74
2023/10/01 13:16:00;;;;;;;7.17;4.77;;;22.10;79.60;;;;;;5065926;28;20725;-74
2023/10/01 13:18:31;;;;;;;7.43;4.07;;;22.00;79.00;;;;;;5065590;28;20770;-74
2023/10/01 13:21:06;;;;;;;5.30;3.80;;;22.00;80.60;;;;;;5066189;28;21026;-74
2023/10/01 13:23:41;;;;;;;5.93;3.90;;;22.00;78.80;;;;;;5065697;28;20668;-74
2023/10/01 13:26:15;;;;;;;4.50;3.40;;;22.00;78.20;;;;;;5065589;28;20633;-74
2023/10/01 13:28:50;;;;;;;6.07;3.00;;;22.10;78.70;;;;;;5065169;28;21002;-74
2023/10/01 13:31:40;;;;;;;7.10;4.40;;;22.10;77.10;;;;;;5066151;28;20729;-74
2023/10/01 13:34:20;;;;;;;6.03;4.20;;;22.20;76.10;;;;;;5065890;28;20628;-74
2023/10/01 13:37:12;;;;;;;7.20;4.83;;;22.20;77.30;;;;;;5065196;28;20635;-74
2023/10/01 13:40:10;;;;;;;5.17;3.40;;;22.20;77.00;;;;;;5065518;28;20634;-74